Time;durP1;ratioP1;P1;durP2;ratioP2;P2;SDS_P1;SDS_P2;PMS_P1;PMS_P2;Temp;Humidity;BMP_temperature;BMP_pressure;BME280_temperature;BME280_humidity;BME280_pressure;Samples;Min_cycle;Max_cycle;Signal;HPM_P1;HPM_P2
2022/07/04 00:00:16;;;;;;;5.20;4.90;;;15.10;99.90;;;;;;5033011;28;20616;-68
2022/07/04 00:02:43;;;;;;;5.40;4.90;;;15.10;99.90;;;;;;5050012;28;20175;-68
2022/07/04 00:05:11;;;;;;;5.07;4.73;;;15.00;99.90;;;;;;5049940;28;20186;-68
2022/07/04 00:07:38;;;;;;;5.50;5.00;;;15.00;99.90;;;;;;5040211;28;20202;-68
2022/07/04 00:10:05;;;;;;;5.10;4.90;;;14.90;99.90;;;;;;5027756;28;20182;-68
2022/07/04 00:12:30;;;;;;;5.17;4.73;;;14.80;99.90;;;;;;5047035;28;20732;-68
2022/07/04 00:14:56;;;;;;;5.23;4.77;;;14.80;99.90;;;;;;5013555;28;20301;-68
2022/07/04 00:17:22;;;;;;;5.17;4.87;;;14.70;99.90;;;;;;5014966;28;20194;-68
2022/07/04 00:19:47;;;;;;;5.67;5.37;;;14.70;99.90;;;;;;5049411;28;20178;-68
2022/07/04 00:22:13;;;;;;;5.67;5.27;;;14.60;99.90;;;;;;5037093;28;20192;-68
2022/07/04 00:24:38;;;;;;;7.27;4.90;;;14.60;99.90;;;;;;5013466;28;20572;-68
2022/07/04 00:27:04;;;;;;;5.70;5.20;;;14.60;99.90;;;;;;5034601;28;20306;-68
2022/07/04 00:29:30;;;;;;;5.73;5.17;;;14.60;99.90;;;;;;5032686;28;20280;-68
2022/07/04 00:31:56;;;;;;;5.57;5.10;;;14.60;99.90;;;;;;5013844;28;20662;-68
2022/07/04 00:34:21;;;;;;;5.03;4.60;;;14.50;99.90;;;;;;5032736;28;20221;-68
2022/07/04 00:36:47;;;;;;;5.47;5.07;;;14.50;99.90;;;;;;5041712;28;20244;-68
2022/07/04 00:39:13;;;;;;;5.40;5.10;;;14.50;99.90;;;;;;5037030;28;20187;-68
2022/07/04 00:41:38;;;;;;;5.70;5.20;;;14.40;99.90;;;;;;5039847;28;20644;-68
2022/07/04 00:44:07;;;;;;;5.43;5.10;;;14.40;99.90;;;;;;5050813;28;20207;-68
2022/07/04 00:46:34;;;;;;;5.57;5.07;;;14.30;99.90;;;;;;5025743;28;20191;-68
2022/07/04 00:49:00;;;;;;;5.57;5.13;;;14.20;99.90;;;;;;5031301;28;20194;-68
2022/07/04 00:51:26;;;;;;;5.77;5.47;;;14.10;99.90;;;;;;5026097;28;20233;-68
2022/07/04 00:53:55;;;;;;;5.50;5.00;;;14.10;99.90;;;;;;5049119;28;20236;-68
2022/07/04 00:56:22;;;;;;;5.43;4.97;;;14.10;99.90;;;;;;5019077;28;20310;-68
2022/07/04 00:58:48;;;;;;;5.17;4.77;;;14.10;99.90;;;;;;5036181;28;20175;-68
2022/07/04 01:01:14;;;;;;;5.60;5.30;;;14.00;99.90;;;;;;5050609;28;20182;-68
2022/07/04 01:03:39;;;;;;;5.70;5.30;;;14.00;99.90;;;;;;5028768;28;20176;-68
2022/07/04 01:06:08;;;;;;;5.77;5.37;;;13.90;99.90;;;;;;5017512;28;20190;-68
2022/07/04 01:08:39;;;;;;;5.90;5.17;;;13.90;99.90;;;;;;5047559;28;20202;-68
2022/07/04 01:11:05;;;;;;;5.20;4.90;;;13.80;99.90;;;;;;5045964;28;20320;-68
2022/07/04 01:13:31;;;;;;;5.90;5.50;;;13.70;99.90;;;;;;5022470;28;20278;-68
2022/07/04 01:15:57;;;;;;;5.73;5.23;;;13.70;99.90;;;;;;5036351;28;20318;-68
2022/07/04 01:18:23;;;;;;;5.60;5.30;;;13.70;99.90;;;;;;5039243;28;20200;-68
2022/07/04 01:20:49;;;;;;;5.63;5.33;;;13.70;99.90;;;;;;5034818;28;20187;-68
2022/07/04 01:23:15;;;;;;;6.00;5.70;;;13.70;99.90;;;;;;5051367;28;20178;-68
2022/07/04 01:25:41;;;;;;;5.77;5.37;;;13.70;99.90;;;;;;5054272;28;20644;-68
2022/07/04 01:28:07;;;;;;;8.83;5.90;;;13.70;99.90;;;;;;5039418;28;20222;-68
2022/07/04 01:30:33;;;;;;;5.90;5.17;;;13.70;99.90;;;;;;5017379;28;20615;-68
2022/07/04 01:32:59;;;;;;;5.70;5.23;;;13.70;99.90;;;;;;5035419;28;20186;-68
2022/07/04 01:35:25;;;;;;;5.57;5.17;;;13.70;99.90;;;;;;5034248;28;20281;-68
2022/07/04 01:37:51;;;;;;;5.40;5.10;;;13.70;99.90;;;;;;5052305;28;20202;-68
2022/07/04 01:40:16;;;;;;;5.93;5.33;;;13.70;99.90;;;;;;5019517;28;20183;-68
2022/07/04 01:42:43;;;;;;;5.60;5.20;;;13.70;99.90;;;;;;5042544;28;20210;-68
2022/07/04 01:45:10;;;;;;;5.60;5.20;;;13.60;99.90;;;;;;5054410;28;20178;-68
2022/07/04 01:47:36;;;;;;;5.87;5.33;;;13.60;99.90;;;;;;5041979;28;20195;-68
2022/07/04 01:50:05;;;;;;;5.20;4.90;;;13.60;99.90;;;;;;5034181;28;20187;-68
2022/07/04 01:52:31;;;;;;;8.50;5.10;;;13.60;99.90;;;;;;5033593;28;20265;-68
2022/07/04 01:54:57;;;;;;;5.80;5.30;;;13.60;99.90;;;;;;5047313;28;20179;-68
2022/07/04 01:57:22;;;;;;;6.00;5.50;;;13.60;99.90;;;;;;5017637;28;20256;-68
2022/07/04 02:02:32;;;;;;;5.33;4.93;;;13.50;99.90;;;;;;5025947;28;20249;-68
2022/07/04 02:04:58;;;;;;;5.60;5.20;;;13.40;99.90;;;;;;5018318;28;20175;-68
2022/07/04 02:07:23;;;;;;;10.73;5.40;;;13.40;99.90;;;;;;5037347;28;20270;-68
2022/07/04 02:09:49;;;;;;;5.50;4.90;;;13.30;99.90;;;;;;5034794;28;20640;-68
2022/07/04 02:14:59;;;;;;;6.00;5.40;;;13.30;99.90;;;;;;5024408;28;20589;-68
2022/07/04 02:17:25;;;;;;;6.80;5.50;;;13.20;99.90;;;;;;5033754;28;20191;-68
2022/07/04 02:19:50;;;;;;;5.67;5.27;;;13.20;99.90;;;;;;5033695;28;20279;-68
2022/07/04 02:22:16;;;;;;;5.27;4.97;;;13.20;99.90;;;;;;5036643;28;20262;-68
2022/07/04 02:24:42;;;;;;;5.30;5.00;;;13.20;99.90;;;;;;5049059;28;20195;-68
2022/07/04 02:27:08;;;;;;;5.87;5.50;;;13.10;99.90;;;;;;5040116;28;20214;-68
2022/07/04 02:29:34;;;;;;;5.60;5.20;;;13.10;99.90;;;;;;5051861;28;20189;-68
2022/07/04 02:31:59;;;;;;;6.57;5.10;;;13.10;99.90;;;;;;5035079;28;20175;-68
2022/07/04 02:34:26;;;;;;;13.77;5.57;;;13.00;99.90;;;;;;5051365;28;20251;-68
2022/07/04 02:36:51;;;;;;;7.50;5.20;;;13.00;99.90;;;;;;5052829;28;20214;-68
2022/07/04 02:39:17;;;;;;;6.90;5.43;;;13.00;99.90;;;;;;5015843;28;20676;-68
2022/07/04 02:41:43;;;;;;;7.73;5.50;;;13.00;99.90;;;;;;5040141;28;20178;-68
2022/07/04 02:44:09;;;;;;;6.03;5.57;;;13.00;99.90;;;;;;5044040;28;20167;-68
2022/07/04 02:46:35;;;;;;;5.90;5.40;;;13.00;99.90;;;;;;5053009;28;20269;-68
2022/07/04 02:49:01;;;;;;;5.47;5.17;;;13.00;99.90;;;;;;5035423;28;20183;-68
2022/07/04 02:51:26;;;;;;;5.50;5.20;;;13.00;99.90;;;;;;5033224;28;20285;-68
2022/07/04 02:53:52;;;;;;;6.20;5.70;;;13.00;99.90;;;;;;5033765;28;20183;-68
2022/07/04 02:56:18;;;;;;;6.03;5.30;;;12.90;99.90;;;;;;5044421;28;20199;-68
2022/07/04 02:58:44;;;;;;;5.33;4.93;;;12.90;99.90;;;;;;5041877;28;20673;-68
2022/07/04 03:01:12;;;;;;;6.23;5.67;;;12.90;99.90;;;;;;5022892;28;20270;-68
2022/07/04 03:03:39;;;;;;;6.13;5.73;;;12.90;99.90;;;;;;5050772;28;20171;-68
2022/07/04 03:06:05;;;;;;;6.00;5.70;;;12.90;99.90;;;;;;5021254;28;20179;-68
2022/07/04 03:08:30;;;;;;;6.77;6.03;;;12.90;99.90;;;;;;5032575;28;20199;-68
2022/07/04 03:10:56;;;;;;;6.77;6.00;;;12.80;99.90;;;;;;5035988;28;20186;-68
2022/07/04 03:13:22;;;;;;;6.30;5.70;;;12.80;99.90;;;;;;5032491;28;20180;-68
2022/07/04 03:15:47;;;;;;;7.23;5.90;;;12.80;99.90;;;;;;5047328;28;20332;-68
2022/07/04 03:18:13;;;;;;;6.63;6.07;;;12.80;99.90;;;;;;5025559;28;20199;-68
2022/07/04 03:20:38;;;;;;;6.57;5.47;;;12.80;99.90;;;;;;5014677;28;20686;-68
2022/07/04 03:23:04;;;;;;;6.47;5.60;;;12.80;99.90;;;;;;5025002;28;20175;-68
2022/07/04 03:25:30;;;;;;;7.20;6.50;;;12.70;99.90;;;;;;5043985;28;20301;-68
2022/07/04 03:27:55;;;;;;;6.50;5.90;;;12.70;99.90;;;;;;5046799;28;20695;-68
2022/07/04 03:30:21;;;;;;;7.10;6.00;;;12.70;99.90;;;;;;5050424;28;20194;-68
2022/07/04 03:32:46;;;;;;;7.07;6.13;;;12.70;99.90;;;;;;5050588;28;20183;-68
2022/07/04 03:35:12;;;;;;;6.13;5.47;;;12.70;99.90;;;;;;5051944;28;20174;-68
2022/07/04 03:37:38;;;;;;;6.53;5.97;;;12.70;99.90;;;;;;5050349;28;20240;-68
2022/07/04 03:40:04;;;;;;;7.10;5.60;;;12.70;99.90;;;;;;5043936;28;20747;-68
2022/07/04 03:42:29;;;;;;;6.97;6.20;;;12.70;99.90;;;;;;5025415;28;20182;-68
2022/07/04 03:44:56;;;;;;;6.50;6.10;;;12.70;99.90;;;;;;5051355;28;20218;-68
2022/07/04 03:47:22;;;;;;;6.80;6.20;;;12.70;99.90;;;;;;5033393;28;20550;-68
2022/07/04 03:49:48;;;;;;;6.90;5.83;;;12.70;99.90;;;;;;5045042;28;20470;-68
2022/07/04 03:52:13;;;;;;;7.87;6.30;;;12.80;99.90;;;;;;5050532;28;20246;-68
2022/07/04 03:54:39;;;;;;;9.57;7.07;;;12.80;99.90;;;;;;5032795;28;20724;-68
2022/07/04 03:57:05;;;;;;;7.00;6.37;;;12.80;99.90;;;;;;5050310;28;20252;-68
2022/07/04 03:59:30;;;;;;;6.73;6.23;;;12.80;99.90;;;;;;5051499;28;20209;-68
2022/07/04 04:01:56;;;;;;;7.47;6.77;;;12.90;99.90;;;;;;5037356;28;20487;-68
2022/07/04 04:07:06;;;;;;;8.23;6.67;;;13.00;99.90;;;;;;5051148;28;20232;-68
2022/07/04 04:09:31;;;;;;;7.77;6.80;;;13.00;99.90;;;;;;5031009;28;20179;-68
2022/07/04 04:11:57;;;;;;;9.67;6.70;;;13.10;99.90;;;;;;5013896;28;20194;-68
2022/07/04 04:14:24;;;;;;;7.17;6.63;;;13.10;99.90;;;;;;5049985;28;20191;-68
2022/07/04 04:16:50;;;;;;;7.27;6.60;;;13.20;99.90;;;;;;5048722;28;20203;-68
2022/07/04 04:19:15;;;;;;;7.10;6.60;;;13.20;99.90;;;;;;5013932;28;20186;-68
2022/07/04 04:21:41;;;;;;;7.13;6.47;;;13.30;99.90;;;;;;5017922;28;20175;-68
2022/07/04 04:24:07;;;;;;;10.67;6.40;;;13.40;99.90;;;;;;5043257;28;20198;-68
2022/07/04 04:26:33;;;;;;;6.60;6.20;;;13.60;99.90;;;;;;5051176;28;20175;-68
2022/07/04 04:28:59;;;;;;;9.03;5.70;;;13.80;99.90;;;;;;5037088;28;20191;-69
2022/07/04 04:31:25;;;;;;;6.40;5.80;;;14.00;99.90;;;;;;5041802;28;20230;-69
2022/07/04 04:33:51;;;;;;;6.53;5.83;;;14.30;99.90;;;;;;5049261;28;20623;-69
2022/07/04 04:36:17;;;;;;;6.40;6.00;;;14.60;99.90;;;;;;5033358;28;20668;-68
2022/07/04 04:38:42;;;;;;;8.90;5.97;;;14.90;99.90;;;;;;5044645;28;20225;-68
2022/07/04 04:41:08;;;;;;;5.67;5.27;;;15.20;99.90;;;;;;5033663;28;20209;-69
2022/07/04 04:43:34;;;;;;;5.57;5.17;;;15.50;99.90;;;;;;5020588;28;20183;-67
2022/07/04 04:46:00;;;;;;;8.13;6.07;;;15.80;99.90;;;;;;5031197;28;20642;-69
2022/07/04 04:48:25;;;;;;;6.23;5.30;;;16.10;99.90;;;;;;5047289;28;20209;-68
2022/07/04 04:50:51;;;;;;;5.67;5.20;;;16.40;99.90;;;;;;5019297;28;20622;-69
2022/07/04 04:53:16;;;;;;;5.87;5.37;;;16.60;99.90;;;;;;5045244;28;20241;-68
2022/07/04 04:55:42;;;;;;;5.83;5.33;;;16.90;99.90;;;;;;5033444;28;20566;-68
2022/07/04 04:58:08;;;;;;;8.20;6.37;;;17.30;99.90;;;;;;5048262;28;20616;-68
2022/07/04 05:00:34;;;;;;;5.67;5.20;;;17.70;99.90;;;;;;5032232;28;20178;-68
2022/07/04 05:02:59;;;;;;;8.90;5.67;;;17.90;99.90;;;;;;5041991;28;20186;-68
2022/07/04 05:05:25;;;;;;;6.10;4.50;;;18.30;99.90;;;;;;5050826;28;20285;-68
2022/07/04 05:07:51;;;;;;;5.70;5.27;;;18.50;99.90;;;;;;5033012;28;20234;-68
2022/07/04 05:10:17;;;;;;;6.60;6.10;;;18.50;99.90;;;;;;5019267;28;20194;-69
2022/07/04 05:12:43;;;;;;;7.23;6.63;;;18.60;99.90;;;;;;5050633;28;20734;-68
2022/07/04 05:15:09;;;;;;;6.30;5.63;;;18.70;99.90;;;;;;5023568;28;20521;-67
2022/07/04 05:17:35;;;;;;;5.30;4.80;;;19.00;99.90;;;;;;5014183;28;20196;-68
2022/07/04 05:20:02;;;;;;;5.60;4.37;;;19.30;99.90;;;;;;5050148;28;20209;-67
2022/07/04 05:22:28;;;;;;;6.13;4.77;;;19.60;99.90;;;;;;5046801;28;20629;-69
2022/07/04 05:24:54;;;;;;;5.30;4.80;;;19.60;99.90;;;;;;5030888;28;20172;-68
2022/07/04 05:27:20;;;;;;;5.57;4.20;;;19.70;99.90;;;;;;5032155;28;20215;-69
2022/07/04 05:29:45;;;;;;;4.50;4.20;;;19.70;99.90;;;;;;5040934;28;20187;-68
2022/07/04 05:32:11;;;;;;;4.80;4.50;;;19.40;99.90;;;;;;5050554;28;20546;-67
2022/07/04 05:34:37;;;;;;;6.13;4.87;;;19.30;99.90;;;;;;5048569;28;20175;-69
2022/07/04 05:37:03;;;;;;;9.33;4.93;;;19.30;99.90;;;;;;5045726;28;20285;-68
2022/07/04 05:39:29;;;;;;;5.73;4.63;;;19.20;99.90;;;;;;5030881;28;20175;-68
2022/07/04 05:41:55;;;;;;;7.43;4.87;;;19.10;99.90;;;;;;5033781;28;20176;-68
2022/07/04 05:44:21;;;;;;;6.67;4.90;;;19.20;99.90;;;;;;5046546;28;20241;-68
2022/07/04 05:46:46;;;;;;;6.97;4.53;;;19.00;99.90;;;;;;5025316;28;20737;-68
2022/07/04 05:49:12;;;;;;;5.43;4.47;;;19.20;99.90;;;;;;5054100;28;20229;-68
2022/07/04 05:51:38;;;;;;;5.60;5.10;;;19.40;99.90;;;;;;5020448;28;20191;-68
2022/07/04 05:54:03;;;;;;;4.47;4.27;;;19.60;99.90;;;;;;5019682;28;20220;-68
2022/07/04 05:56:30;;;;;;;7.00;3.93;;;19.80;99.90;;;;;;5053906;28;20634;-68
2022/07/04 05:58:56;;;;;;;4.57;4.17;;;20.00;99.90;;;;;;5036613;28;20684;-68
2022/07/04 06:01:21;;;;;;;3.90;3.70;;;20.30;99.90;;;;;;5052583;28;20183;-68
2022/07/04 06:03:47;;;;;;;7.57;4.30;;;20.60;99.90;;;;;;5052267;28;20186;-69
2022/07/04 06:06:13;;;;;;;6.45;3.72;;;21.00;99.90;;;;;;5053503;28;20195;-69
2022/07/04 06:08:39;;;;;;;4.18;3.83;;;21.30;99.90;;;;;;5028292;28;20203;-67
2022/07/04 06:11:04;;;;;;;5.72;4.03;;;21.70;99.90;;;;;;5032743;28;20178;-67
2022/07/04 06:13:30;;;;;;;3.78;3.58;;;22.10;99.90;;;;;;5033510;28;20184;-67
2022/07/04 06:15:56;;;;;;;3.58;3.25;;;22.30;99.90;;;;;;5045554;28;20198;-69
2022/07/04 06:18:21;;;;;;;4.25;3.92;;;22.50;99.90;;;;;;5015825;28;20199;-68
2022/07/04 06:20:47;;;;;;;5.15;3.88;;;22.70;99.90;;;;;;5033349;28;20607;-69
2022/07/04 06:23:13;;;;;;;5.72;3.70;;;22.50;99.90;;;;;;5034099;28;20233;-67
2022/07/04 06:25:38;;;;;;;4.82;3.80;;;22.30;99.90;;;;;;5041745;28;20187;-67
2022/07/04 06:28:04;;;;;;;3.85;3.50;;;22.30;99.90;;;;;;5052979;28;20229;-68
2022/07/04 06:30:29;;;;;;;3.78;3.58;;;22.40;99.90;;;;;;5036969;28;20215;-67
2022/07/04 06:32:56;;;;;;;4.90;3.42;;;22.60;99.90;;;;;;5034290;28;20187;-67
2022/07/04 06:38:09;;;;;;;4.97;3.70;;;22.90;99.90;;;;;;5046410;28;20252;-67
2022/07/04 06:40:36;;;;;;;6.13;4.10;;;22.90;99.90;;;;;;5036101;28;20179;-67
2022/07/04 06:43:02;;;;;;;4.22;3.80;;;22.70;99.90;;;;;;5050947;28;20174;-67
2022/07/04 06:45:28;;;;;;;8.40;3.50;;;22.80;99.90;;;;;;5038141;28;20302;-67
2022/07/04 06:47:53;;;;;;;4.18;3.55;;;23.10;99.90;;;;;;5033868;28;20278;-67
2022/07/04 06:50:19;;;;;;;4.85;3.58;;;23.10;99.90;;;;;;5015387;28;20177;-67
2022/07/04 06:52:45;;;;;;;3.63;3.33;;;23.00;99.90;;;;;;5017073;28;20179;-67
2022/07/04 06:55:11;;;;;;;5.75;3.55;;;23.00;99.90;;;;;;5047464;28;20180;-68
2022/07/04 06:57:37;;;;;;;5.95;3.22;;;23.20;99.90;;;;;;5040573;28;20664;-68
2022/07/04 07:00:05;;;;;;;3.63;3.17;;;23.50;99.90;;;;;;5041259;28;20218;-68
2022/07/04 07:02:31;;;;;;;3.47;3.28;;;23.70;99.90;;;;;;5014120;28;20207;-68
2022/07/04 07:04:57;;;;;;;3.20;2.95;;;24.00;99.90;;;;;;5033572;28;20257;-68
2022/07/04 07:07:24;;;;;;;2.90;2.70;;;24.20;99.90;;;;;;5034464;28;20357;-68
2022/07/04 07:09:50;;;;;;;2.67;2.58;;;24.40;99.90;;;;;;5043187;28;20636;-67
2022/07/04 07:12:16;;;;;;;2.80;2.70;;;24.50;99.90;;;;;;5047425;28;20175;-68
2022/07/04 07:14:42;;;;;;;3.70;3.40;;;24.60;99.90;;;;;;5032225;28;20187;-68
2022/07/04 07:17:08;;;;;;;3.30;3.00;;;24.60;99.90;;;;;;5033784;28;20285;-68
2022/07/04 07:19:34;;;;;;;2.90;2.70;;;24.70;99.90;;;;;;5050641;28;20182;-68
2022/07/04 07:21:59;;;;;;;2.88;2.67;;;24.90;99.90;;;;;;5042982;28;20179;-68
2022/07/04 07:24:25;;;;;;;3.42;3.00;;;24.90;99.90;;;;;;5044528;28;20608;-67
2022/07/04 07:26:51;;;;;;;3.30;3.08;;;24.80;99.90;;;;;;5035791;28;20286;-68
2022/07/04 07:29:17;;;;;;;3.85;3.25;;;24.70;99.90;;;;;;5030992;28;20324;-68
2022/07/04 07:31:43;;;;;;;4.05;3.70;;;24.60;99.90;;;;;;5033491;28;20235;-68
2022/07/04 07:34:09;;;;;;;6.85;3.47;;;24.60;99.90;;;;;;5015328;28;20266;-68
2022/07/04 07:36:34;;;;;;;3.13;2.83;;;24.80;99.90;;;;;;5041945;28;20218;-68
2022/07/04 07:39:00;;;;;;;3.65;3.40;;;24.90;99.90;;;;;;5046779;28;20649;-68
2022/07/04 07:41:26;;;;;;;2.80;2.60;;;25.20;99.90;;;;;;5032255;28;20185;-68
2022/07/04 07:43:51;;;;;;;3.03;2.70;;;25.60;99.90;;;;;;5045857;28;20265;-68
2022/07/04 07:46:17;;;;;;;5.15;3.08;;;25.70;99.90;;;;;;5041912;28;20191;-69
2022/07/04 07:48:43;;;;;;;3.45;3.25;;;25.70;99.90;;;;;;5027003;28;20560;-69
2022/07/04 07:51:10;;;;;;;3.35;3.05;;;25.80;99.90;;;;;;5016738;28;20183;-69
2022/07/04 07:53:36;;;;;;;3.00;2.70;;;26.00;99.90;;;;;;5047764;28;20189;-67
2022/07/04 07:56:01;;;;;;;3.15;2.83;;;26.20;99.90;;;;;;5031886;28;20200;-69
2022/07/04 07:58:27;;;;;;;4.22;2.80;;;26.50;99.90;;;;;;5034555;28;20233;-68
2022/07/04 08:00:53;;;;;;;3.28;2.97;;;26.90;99.90;;;;;;5018571;28;20655;-68
2022/07/04 08:06:03;;;;;;;5.63;3.58;;;27.00;99.90;;;;;;5045275;28;20650;-67
2022/07/04 08:08:29;;;;;;;2.60;2.50;;;26.80;99.90;;;;;;5031542;28;20215;-68
2022/07/04 08:10:54;;;;;;;4.68;3.20;;;26.80;99.90;;;;;;5043980;28;20225;-68
2022/07/04 08:13:20;;;;;;;2.92;2.70;;;26.80;99.90;;;;;;5051107;28;20185;-67
2022/07/04 08:15:46;;;;;;;3.67;2.88;;;26.70;99.90;;;;;;5049201;28;20202;-68
2022/07/04 08:18:12;;;;;;;2.95;2.58;;;26.60;99.90;;;;;;5049577;28;20201;-68
2022/07/04 08:20:37;;;;;;;3.08;2.88;;;26.80;99.90;;;;;;4994508;28;20185;-68
2022/07/04 08:23:03;;;;;;;2.63;2.53;;;26.90;99.90;;;;;;5026960;28;20183;-68
2022/07/04 08:25:29;;;;;;;2.60;2.50;;;26.50;99.90;;;;;;5039923;28;20175;-68
2022/07/04 08:27:54;;;;;;;3.00;2.80;;;26.30;99.90;;;;;;5045614;28;20959;-68
2022/07/04 08:30:20;;;;;;;2.97;2.78;;;26.30;99.90;;;;;;5043013;28;20686;-67
2022/07/04 08:32:46;;;;;;;2.90;2.70;;;26.50;99.90;;;;;;5014623;28;20181;-68
2022/07/04 08:35:12;;;;;;;3.15;2.95;;;26.80;99.90;;;;;;5044848;28;20177;-67
2022/07/04 08:37:40;;;;;;;3.55;2.97;;;26.60;99.90;;;;;;5033487;28;20207;-68
2022/07/04 08:40:07;;;;;;;2.88;2.67;;;26.80;99.90;;;;;;5041384;28;20262;-68
2022/07/04 08:42:38;;;;;;;2.80;2.60;;;27.00;99.90;;;;;;5034418;28;20183;-68
2022/07/04 08:45:06;;;;;;;3.00;2.80;;;27.40;99.90;;;;;;5039948;28;20521;-67
2022/07/04 08:47:34;;;;;;;3.55;2.70;;;27.60;99.90;;;;;;5037480;28;20207;-68
2022/07/04 08:50:11;;;;;;;4.13;2.53;;;27.90;99.90;;;;;;5046104;28;20185;-68
2022/07/04 08:52:38;;;;;;;3.47;3.17;;;27.90;99.90;;;;;;5050954;28;20232;-68
2022/07/04 09:00:35;;;;;;;3.75;2.70;;;28.30;99.90;;;;;;5051206;28;20552;-68
2022/07/04 09:03:02;;;;;;;3.53;2.65;;;28.00;99.90;;;;;;5046023;28;20179;-68
2022/07/04 09:05:28;;;;;;;3.85;2.80;;;28.30;99.90;;;;;;5030859;28;20622;-68
2022/07/04 09:07:54;;;;;;;2.80;2.60;;;28.50;99.90;;;;;;5033585;28;20208;-68
2022/07/04 09:10:22;;;;;;;2.65;2.45;;;28.80;99.90;;;;;;5050753;28;20210;-68
2022/07/04 09:12:48;;;;;;;3.05;2.60;;;28.90;99.90;;;;;;5025235;28;20278;-68
2022/07/04 09:15:15;;;;;;;3.00;2.80;;;29.30;99.90;;;;;;5030752;28;20171;-68
2022/07/04 09:17:40;;;;;;;2.70;2.50;;;29.50;99.90;;;;;;5015318;28;20249;-67
2022/07/04 09:20:19;;;;;;;3.72;2.58;;;29.40;99.90;;;;;;5034964;28;20167;-67
2022/07/04 09:22:46;;;;;;;2.70;2.50;;;29.00;99.90;;;;;;5050277;28;20265;-67
2022/07/04 09:25:14;;;;;;;2.75;2.55;;;28.50;99.90;;;;;;5036471;28;20171;-67
2022/07/04 09:27:44;;;;;;;3.72;3.03;;;27.90;99.90;;;;;;5052669;28;20214;-68
2022/07/04 09:30:12;;;;;;;3.88;3.55;;;27.80;99.90;;;;;;5054518;28;20209;-68
2022/07/04 09:32:59;;;;;;;3.78;2.72;;;27.70;99.90;;;;;;5037083;28;20249;-68
2022/07/04 09:35:26;;;;;;;2.83;2.63;;;27.90;99.90;;;;;;5034204;28;20163;-68
2022/07/04 09:37:53;;;;;;;3.47;3.22;;;28.00;99.90;;;;;;5052389;28;20234;-68
2022/07/04 09:40:24;;;;;;;2.65;2.45;;;28.20;99.90;;;;;;5054369;28;20233;-67
2022/07/04 09:42:50;;;;;;;3.00;2.80;;;28.40;99.90;;;;;;5036427;28;20182;-68
2022/07/04 09:45:16;;;;;;;3.22;2.92;;;28.50;99.90;;;;;;5034054;28;20656;-68
2022/07/04 09:47:45;;;;;;;3.85;3.15;;;28.80;99.90;;;;;;5035669;28;20203;-68
2022/07/04 09:50:15;;;;;;;2.75;2.42;;;28.80;99.90;;;;;;5054233;28;20648;-68
2022/07/04 09:53:01;;;;;;;4.13;2.75;;;28.80;99.90;;;;;;5034719;28;20179;-68
2022/07/04 09:55:27;;;;;;;3.53;3.10;;;29.10;99.90;;;;;;5031539;28;20194;-68
2022/07/04 09:57:56;;;;;;;2.80;2.60;;;28.90;99.90;;;;;;5036093;28;20225;-68
2022/07/04 10:00:26;;;;;;;2.88;2.67;;;28.70;99.90;;;;;;5039448;28;20649;-68
2022/07/04 10:02:53;;;;;;;3.10;2.78;;;28.30;99.90;;;;;;5033935;28;20176;-68
2022/07/04 10:05:27;;;;;;;2.85;2.58;;;28.10;99.90;;;;;;5029246;28;20280;-68
2022/07/04 10:07:57;;;;;;;2.85;2.65;;;28.50;99.90;;;;;;5053579;28;20202;-68
2022/07/04 10:10:40;;;;;;;3.30;3.00;;;28.70;99.90;;;;;;5017938;28;20672;-68
2022/07/04 10:13:12;;;;;;;3.25;2.78;;;28.70;99.90;;;;;;5033857;28;20172;-68
2022/07/04 10:15:42;;;;;;;3.10;2.90;;;28.80;99.90;;;;;;5033961;28;20672;-68
2022/07/04 10:18:09;;;;;;;2.80;2.60;;;28.70;99.90;;;;;;5035617;28;20706;-69
2022/07/04 10:20:35;;;;;;;2.80;2.60;;;28.50;99.90;;;;;;5039131;28;20543;-68
2022/07/04 10:23:02;;;;;;;3.28;2.63;;;28.80;99.90;;;;;;5033402;28;20191;-68
2022/07/04 10:25:28;;;;;;;3.92;2.60;;;29.00;99.90;;;;;;5043432;28;20186;-67
2022/07/04 10:27:53;;;;;;;3.95;3.28;;;29.10;99.90;;;;;;5076127;22;20272;-66
2022/07/04 10:30:28;;;;;;;3.20;3.00;;;29.20;99.90;;;;;;5061072;28;20182;-67
2022/07/04 10:32:57;;;;;;;2.75;2.55;;;29.30;99.90;;;;;;5073431;28;20180;-67
2022/07/04 10:35:50;;;;;;;2.67;2.47;;;29.30;99.90;;;;;;5064170;28;20171;-66
2022/07/04 10:38:20;;;;;;;4.00;2.83;;;29.90;99.90;;;;;;5053222;28;20276;-66
2022/07/04 10:40:48;;;;;;;2.63;2.42;;;30.10;99.90;;;;;;5041930;28;20191;-66
2022/07/04 10:43:35;;;;;;;3.13;2.80;;;29.90;99.90;;;;;;5033329;28;20433;-66
2022/07/04 10:46:16;;;;;;;2.92;2.72;;;29.60;99.90;;;;;;5045533;28;20280;-66
2022/07/04 10:49:05;;;;;;;2.67;2.40;;;30.00;99.90;;;;;;5041319;28;20254;-66
2022/07/04 10:51:42;;;;;;;2.90;2.70;;;30.40;99.90;;;;;;5033239;28;20172;-66
2022/07/04 10:54:12;;;;;;;2.63;2.42;;;30.80;99.90;;;;;;5046885;28;20588;-66
2022/07/04 10:56:49;;;;;;;2.85;2.30;;;31.10;99.90;;;;;;5052906;28;20202;-66
2022/07/04 10:59:25;;;;;;;2.67;2.47;;;31.20;99.90;;;;;;5038340;28;20274;-66
2022/07/04 11:01:58;;;;;;;2.70;2.50;;;30.60;99.90;;;;;;5015147;28;20229;-66
2022/07/04 11:04:49;;;;;;;2.85;2.65;;;30.20;99.90;;;;;;5047419;28;20185;-65
2022/07/04 11:07:15;;;;;;;3.40;3.10;;;29.80;99.90;;;;;;5052677;28;20694;-66
2022/07/04 11:09:42;;;;;;;4.82;2.97;;;29.70;99.90;;;;;;5035608;28;20419;-66
2022/07/04 11:12:09;;;;;;;4.43;2.70;;;29.40;99.90;;;;;;5032703;28;20508;-66
2022/07/04 11:14:43;;;;;;;2.92;2.63;;;29.20;99.90;;;;;;5047041;28;20187;-66
2022/07/04 11:17:12;;;;;;;2.90;2.80;;;28.70;99.90;;;;;;5043177;28;20629;-66
2022/07/04 11:19:39;;;;;;;4.28;2.78;;;28.40;99.90;;;;;;5032572;28;20191;-65
2022/07/04 11:22:08;;;;;;;3.10;2.80;;;28.00;99.90;;;;;;5039903;28;20171;-67
2022/07/04 11:24:35;;;;;;;3.15;2.90;;;27.80;99.90;;;;;;5052139;28;20190;-66
2022/07/04 11:27:01;;;;;;;3.40;3.20;;;27.70;99.90;;;;;;5045264;28;20190;-65
2022/07/04 11:29:28;;;;;;;4.22;2.83;;;27.90;99.90;;;;;;5032493;28;20171;-67
2022/07/04 11:31:54;;;;;;;3.42;3.03;;;28.30;99.90;;;;;;5042881;28;20576;-66
2022/07/04 11:34:20;;;;;;;2.70;2.58;;;28.60;99.90;;;;;;5051945;28;20198;-66
2022/07/04 11:36:48;;;;;;;3.42;3.10;;;28.70;99.90;;;;;;5042927;28;20211;-66
2022/07/04 11:39:21;;;;;;;3.47;2.83;;;28.60;99.90;;;;;;5032198;28;20217;-65
2022/07/04 11:47:38;;;;;;;2.80;2.60;;;29.10;99.90;;;;;;5039670;28;20213;-66
2022/07/04 11:50:10;;;;;;;3.80;2.67;;;29.40;99.90;;;;;;5032347;28;20641;-65
2022/07/04 11:52:38;;;;;;;3.28;3.08;;;29.60;99.90;;;;;;5045252;28;20241;-68
2022/07/04 11:55:05;;;;;;;5.07;2.72;;;29.60;99.90;;;;;;5051506;28;20616;-66
2022/07/04 11:57:42;;;;;;;4.43;2.50;;;29.90;99.90;;;;;;5050067;28;20213;-66
2022/07/04 12:00:10;;;;;;;4.13;2.50;;;30.10;99.90;;;;;;5039132;28;20249;-67
2022/07/04 12:02:37;;;;;;;3.25;2.55;;;30.30;99.90;;;;;;5031813;28;20167;-67
2022/07/04 12:05:13;;;;;;;2.47;2.38;;;30.40;99.90;;;;;;5042006;28;20187;-65
2022/07/04 12:07:42;;;;;;;3.10;2.80;;;30.20;99.90;;;;;;5051653;28;20277;-66
2022/07/04 12:10:15;;;;;;;5.03;2.80;;;29.60;98.40;;;;;;5040291;28;20269;-67
2022/07/04 12:12:53;;;;;;;3.13;2.80;;;28.60;99.10;;;;;;5031956;28;20241;-66
2022/07/04 12:15:20;;;;;;;3.20;2.80;;;28.00;99.90;;;;;;5043104;28;20520;-64
2022/07/04 12:17:54;;;;;;;5.28;3.28;;;28.00;99.90;;;;;;5051097;28;20638;-66
2022/07/04 12:20:24;;;;;;;9.18;2.70;;;28.30;99.90;;;;;;5040147;28;20181;-65
2022/07/04 12:23:01;;;;;;;2.67;2.47;;;28.70;99.90;;;;;;5013839;28;20198;-65
2022/07/04 12:25:29;;;;;;;3.20;2.90;;;29.20;99.90;;;;;;5032404;28;20314;-65
2022/07/04 12:28:01;;;;;;;5.03;2.83;;;29.00;99.00;;;;;;5031316;28;20203;-66
2022/07/04 12:30:29;;;;;;;3.38;2.60;;;28.20;98.80;;;;;;5041972;28;20185;-66
2022/07/04 12:33:06;;;;;;;3.10;2.90;;;28.00;99.90;;;;;;5051155;28;20208;-66
2022/07/04 12:35:32;;;;;;;2.60;2.30;;;28.70;99.90;;;;;;5040117;28;20194;-65
2022/07/04 12:38:10;;;;;;;2.78;2.58;;;29.50;99.90;;;;;;5031288;28;20235;-66
2022/07/04 12:40:37;;;;;;;2.25;2.10;;;29.90;99.90;;;;;;5041849;28;20179;-66
2022/07/04 12:43:03;;;;;;;3.95;2.72;;;29.80;99.10;;;;;;5051186;28;20171;-66
2022/07/04 12:45:47;;;;;;;2.67;2.28;;;29.60;99.80;;;;;;5041945;28;20543;-66
2022/07/04 12:48:21;;;;;;;4.57;2.85;;;29.10;98.60;;;;;;5031400;28;20187;-64
2022/07/04 12:50:47;;;;;;;3.95;2.92;;;29.10;99.70;;;;;;5041567;28;20181;-66
2022/07/04 12:53:13;;;;;;;2.90;2.70;;;29.50;99.90;;;;;;5046431;28;20176;-66
2022/07/04 12:55:44;;;;;;;3.10;2.60;;;30.00;97.90;;;;;;5034859;28;20254;-66
2022/07/04 12:58:10;;;;;;;3.10;2.80;;;30.30;98.80;;;;;;5040363;28;20312;-66
2022/07/04 13:00:36;;;;;;;2.67;2.47;;;30.60;98.80;;;;;;5055140;28;20185;-65
2022/07/04 13:03:02;;;;;;;2.70;2.50;;;30.30;97.20;;;;;;5051060;28;20180;-66
2022/07/04 13:05:28;;;;;;;3.35;3.05;;;30.10;97.10;;;;;;5035423;28;20178;-66
2022/07/04 13:07:53;;;;;;;3.22;2.90;;;29.50;96.40;;;;;;5037143;28;20191;-65
2022/07/04 13:10:19;;;;;;;3.47;3.22;;;28.90;96.90;;;;;;5055181;28;20167;-66